sensor_id;sensor_type;location;lat;lon;timestamp;temperature;humidity
29539;DHT22;16482;51.046;4.498;2022-09-17T00:01:24;23.90;43.80
29539;DHT22;16482;51.046;4.498;2022-09-17T00:03:54;24.00;43.80
29539;DHT22;16482;51.046;4.498;2022-09-17T00:06:21;23.90;43.70
29539;DHT22;16482;51.046;4.498;2022-09-17T00:08:49;24.00;43.80
29539;DHT22;16482;51.046;4.498;2022-09-17T00:11:18;24.00;43.80
29539;DHT22;16482;51.046;4.498;2022-09-17T00:13:46;24.00;43.90
29539;DHT22;16482;51.046;4.498;2022-09-17T00:16:12;23.90;43.80
29539;DHT22;16482;51.046;4.498;2022-09-17T00:18:45;24.00;43.90
29539;DHT22;16482;51.046;4.498;2022-09-17T00:21:18;24.00;43.90
29539;DHT22;16482;51.046;4.498;2022-09-17T00:23:44;24.00;44.00
29539;DHT22;16482;51.046;4.498;2022-09-17T00:26:10;24.00;43.90
29539;DHT22;16482;51.046;4.498;2022-09-17T00:28:37;23.90;43.90
29539;DHT22;16482;51.046;4.498;2022-09-17T00:31:09;23.90;43.90
29539;DHT22;16482;51.046;4.498;2022-09-17T00:33:38;24.00;43.90
29539;DHT22;16482;51.046;4.498;2022-09-17T00:36:13;23.90;43.90
29539;DHT22;16482;51.046;4.498;2022-09-17T00:38:39;24.00;44.00
29539;DHT22;16482;51.046;4.498;2022-09-17T00:41:09;24.00;44.00
29539;DHT22;16482;51.046;4.498;2022-09-17T00:43:44;23.90;44.00
29539;DHT22;16482;51.046;4.498;2022-09-17T00:48:59;23.90;44.00
29539;DHT22;16482;51.046;4.498;2022-09-17T00:51:32;23.90;44.20
29539;DHT22;16482;51.046;4.498;2022-09-17T00:54:00;23.90;44.20
29539;DHT22;16482;51.046;4.498;2022-09-17T00:56:28;23.90;44.20
29539;DHT22;16482;51.046;4.498;2022-09-17T00:58:56;23.90;44.20
29539;DHT22;16482;51.046;4.498;2022-09-17T01:01:22;23.90;44.20
29539;DHT22;16482;51.046;4.498;2022-09-17T01:03:49;23.90;44.20
29539;DHT22;16482;51.046;4.498;2022-09-17T01:06:46;23.90;44.20
29539;DHT22;16482;51.046;4.498;2022-09-17T01:12:20;23.90;44.20
29539;DHT22;16482;51.046;4.498;2022-09-17T01:18:18;23.90;44.30
29539;DHT22;16482;51.046;4.498;2022-09-17T01:21:15;23.90;44.30
29539;DHT22;16482;51.046;4.498;2022-09-17T01:26:46;23.90;44.40
29539;DHT22;16482;51.046;4.498;2022-09-17T01:35:24;23.90;44.40
29539;DHT22;16482;51.046;4.498;2022-09-17T01:38:02;23.90;44.40
29539;DHT22;16482;51.046;4.498;2022-09-17T01:40:52;23.90;44.40
29539;DHT22;16482;51.046;4.498;2022-09-17T01:46:11;23.90;44.30
29539;DHT22;16482;51.046;4.498;2022-09-17T01:48:42;23.90;44.40
29539;DHT22;16482;51.046;4.498;2022-09-17T01:51:19;23.90;44.40
29539;DHT22;16482;51.046;4.498;2022-09-17T01:53:59;23.90;44.40
29539;DHT22;16482;51.046;4.498;2022-09-17T01:56:30;23.80;44.30
29539;DHT22;16482;51.046;4.498;2022-09-17T01:59:13;23.90;44.30
29539;DHT22;16482;51.046;4.498;2022-09-17T02:01:42;23.90;44.30
29539;DHT22;16482;51.046;4.498;2022-09-17T02:07:14;23.90;44.30
29539;DHT22;16482;51.046;4.498;2022-09-17T02:09:44;23.90;44.30
29539;DHT22;16482;51.046;4.498;2022-09-17T02:12:17;23.90;44.40
29539;DHT22;16482;51.046;4.498;2022-09-17T02:14:49;23.90;44.40
29539;DHT22;16482;51.046;4.498;2022-09-17T02:19:47;23.90;44.40
29539;DHT22;16482;51.046;4.498;2022-09-17T02:22:32;23.90;44.50
29539;DHT22;16482;51.046;4.498;2022-09-17T02:30:19;23.90;44.50
29539;DHT22;16482;51.046;4.498;2022-09-17T02:32:45;23.90;44.50
29539;DHT22;16482;51.046;4.498;2022-09-17T02:35:12;23.90;44.50
29539;DHT22;16482;51.046;4.498;2022-09-17T02:37:42;23.90;44.40
29539;DHT22;16482;51.046;4.498;2022-09-17T02:40:23;23.90;44.40
29539;DHT22;16482;51.046;4.498;2022-09-17T02:43:09;23.90;44.40
29539;DHT22;16482;51.046;4.498;2022-09-17T02:53:42;23.80;44.60
29539;DHT22;16482;51.046;4.498;2022-09-17T02:58:56;23.80;44.60
29539;DHT22;16482;51.046;4.498;2022-09-17T03:01:44;23.80;44.50
29539;DHT22;16482;51.046;4.498;2022-09-17T03:04:12;23.80;44.50
29539;DHT22;16482;51.046;4.498;2022-09-17T03:06:42;23.80;44.50
29539;DHT22;16482;51.046;4.498;2022-09-17T03:09:10;23.80;44.40
29539;DHT22;16482;51.046;4.498;2022-09-17T03:11:36;23.80;44.40
29539;DHT22;16482;51.046;4.498;2022-09-17T03:14:02;23.80;44.40
29539;DHT22;16482;51.046;4.498;2022-09-17T03:16:28;23.80;44.40
29539;DHT22;16482;51.046;4.498;2022-09-17T03:18:54;23.80;44.40
29539;DHT22;16482;51.046;4.498;2022-09-17T03:21:20;23.80;44.40
29539;DHT22;16482;51.046;4.498;2022-09-17T03:23:46;23.80;44.30
29539;DHT22;16482;51.046;4.498;2022-09-17T03:26:12;23.80;44.30
29539;DHT22;16482;51.046;4.498;2022-09-17T03:28:38;23.80;44.30
29539;DHT22;16482;51.046;4.498;2022-09-17T03:31:11;23.90;44.30
29539;DHT22;16482;51.046;4.498;2022-09-17T03:33:37;23.90;44.30
29539;DHT22;16482;51.046;4.498;2022-09-17T03:36:05;23.90;44.20
29539;DHT22;16482;51.046;4.498;2022-09-17T03:38:31;23.80;44.20
29539;DHT22;16482;51.046;4.498;2022-09-17T03:41:12;23.80;44.20
29539;DHT22;16482;51.046;4.498;2022-09-17T03:43:41;23.90;44.20
29539;DHT22;16482;51.046;4.498;2022-09-17T03:46:14;23.90;44.10
29539;DHT22;16482;51.046;4.498;2022-09-17T03:48:40;23.80;44.10
29539;DHT22;16482;51.046;4.498;2022-09-17T03:51:13;23.80;44.00
29539;DHT22;16482;51.046;4.498;2022-09-17T03:53:39;23.80;44.00
29539;DHT22;16482;51.046;4.498;2022-09-17T03:56:06;23.80;44.00
29539;DHT22;16482;51.046;4.498;2022-09-17T03:58:42;23.80;44.00
29539;DHT22;16482;51.046;4.498;2022-09-17T04:01:10;23.80;44.00
29539;DHT22;16482;51.046;4.498;2022-09-17T04:03:45;23.80;44.00
29539;DHT22;16482;51.046;4.498;2022-09-17T04:06:11;23.80;44.00
29539;DHT22;16482;51.046;4.498;2022-09-17T04:08:40;23.80;44.00
29539;DHT22;16482;51.046;4.498;2022-09-17T04:11:13;23.80;43.90
29539;DHT22;16482;51.046;4.498;2022-09-17T04:13:42;23.80;44.00
29539;DHT22;16482;51.046;4.498;2022-09-17T04:16:10;23.80;43.90
29539;DHT22;16482;51.046;4.498;2022-09-17T04:18:44;23.80;43.90
29539;DHT22;16482;51.046;4.498;2022-09-17T04:21:13;23.80;43.90
29539;DHT22;16482;51.046;4.498;2022-09-17T04:23:41;23.80;44.50
29539;DHT22;16482;51.046;4.498;2022-09-17T04:26:10;23.80;43.90
29539;DHT22;16482;51.046;4.498;2022-09-17T04:28:39;23.80;43.80
29539;DHT22;16482;51.046;4.498;2022-09-17T04:31:12;23.80;43.90
29539;DHT22;16482;51.046;4.498;2022-09-17T04:33:40;23.80;43.90
29539;DHT22;16482;51.046;4.498;2022-09-17T04:36:09;23.80;43.80
29539;DHT22;16482;51.046;4.498;2022-09-17T04:38:37;23.80;43.90
29539;DHT22;16482;51.046;4.498;2022-09-17T04:41:10;23.80;43.90
29539;DHT22;16482;51.046;4.498;2022-09-17T04:43:44;23.80;43.80
29539;DHT22;16482;51.046;4.498;2022-09-17T04:46:12;23.80;43.80
29539;DHT22;16482;51.046;4.498;2022-09-17T04:48:41;23.80;43.80
29539;DHT22;16482;51.046;4.498;2022-09-17T04:51:09;23.70;43.70
29539;DHT22;16482;51.046;4.498;2022-09-17T04:53:43;23.80;43.70
29539;DHT22;16482;51.046;4.498;2022-09-17T04:56:09;23.80;43.70
29539;DHT22;16482;51.046;4.498;2022-09-17T04:58:42;23.80;43.70
29539;DHT22;16482;51.046;4.498;2022-09-17T05:01:08;23.80;43.70
29539;DHT22;16482;51.046;4.498;2022-09-17T05:03:41;23.80;43.60
29539;DHT22;16482;51.046;4.498;2022-09-17T05:06:10;23.80;43.60
29539;DHT22;16482;51.046;4.498;2022-09-17T05:08:38;23.80;43.60
29539;DHT22;16482;51.046;4.498;2022-09-17T05:11:04;23.80;43.50
29539;DHT22;16482;51.046;4.498;2022-09-17T05:13:30;23.80;43.50
29539;DHT22;16482;51.046;4.498;2022-09-17T05:15:56;23.80;43.60
29539;DHT22;16482;51.046;4.498;2022-09-17T05:18:22;23.80;43.60
29539;DHT22;16482;51.046;4.498;2022-09-17T05:20:48;23.70;43.50
29539;DHT22;16482;51.046;4.498;2022-09-17T05:23:14;23.70;43.50
29539;DHT22;16482;51.046;4.498;2022-09-17T05:25:40;23.70;43.60
29539;DHT22;16482;51.046;4.498;2022-09-17T05:28:07;23.80;43.60
29539;DHT22;16482;51.046;4.498;2022-09-17T05:30:33;23.70;43.50
29539;DHT22;16482;51.046;4.498;2022-09-17T05:33:04;23.70;43.50
29539;DHT22;16482;51.046;4.498;2022-09-17T05:35:32;23.70;43.50
29539;DHT22;16482;51.046;4.498;2022-09-17T05:38:04;23.80;43.60
29539;DHT22;16482;51.046;4.498;2022-09-17T05:40:31;23.80;43.60
29539;DHT22;16482;51.046;4.498;2022-09-17T05:43:01;23.80;44.00
29539;DHT22;16482;51.046;4.498;2022-09-17T05:45:28;23.70;43.80
29539;DHT22;16482;51.046;4.498;2022-09-17T05:47:59;23.70;44.00
29539;DHT22;16482;51.046;4.498;2022-09-17T05:50:27;23.70;44.00
29539;DHT22;16482;51.046;4.498;2022-09-17T05:52:53;23.70;44.10
29539;DHT22;16482;51.046;4.498;2022-09-17T05:55:22;23.70;44.70
29539;DHT22;16482;51.046;4.498;2022-09-17T05:57:51;23.80;44.20
29539;DHT22;16482;51.046;4.498;2022-09-17T06:00:22;23.80;44.10
29539;DHT22;16482;51.046;4.498;2022-09-17T06:02:55;23.80;44.20
29539;DHT22;16482;51.046;4.498;2022-09-17T06:05:23;23.80;44.10
29539;DHT22;16482;51.046;4.498;2022-09-17T06:07:49;23.80;44.20
29539;DHT22;16482;51.046;4.498;2022-09-17T06:10:21;23.80;44.10
29539;DHT22;16482;51.046;4.498;2022-09-17T06:12:55;23.80;44.10
29539;DHT22;16482;51.046;4.498;2022-09-17T06:15:21;23.80;44.10
29539;DHT22;16482;51.046;4.498;2022-09-17T06:17:50;23.80;44.20
29539;DHT22;16482;51.046;4.498;2022-09-17T06:20:15;23.80;44.20
29539;DHT22;16482;51.046;4.498;2022-09-17T06:22:51;23.80;44.20
29539;DHT22;16482;51.046;4.498;2022-09-17T06:25:19;23.80;44.20
29539;DHT22;16482;51.046;4.498;2022-09-17T06:27:45;23.80;44.20
29539;DHT22;16482;51.046;4.498;2022-09-17T06:30:11;23.80;44.30
29539;DHT22;16482;51.046;4.498;2022-09-17T06:32:37;23.90;44.30
29539;DHT22;16482;51.046;4.498;2022-09-17T06:35:03;23.90;44.30
29539;DHT22;16482;51.046;4.498;2022-09-17T06:37:31;23.90;44.20
29539;DHT22;16482;51.046;4.498;2022-09-17T06:39:57;23.80;44.90
29539;DHT22;16482;51.046;4.498;2022-09-17T06:42:24;23.90;44.30
29539;DHT22;16482;51.046;4.498;2022-09-17T06:44:50;23.90;44.30
29539;DHT22;16482;51.046;4.498;2022-09-17T06:47:16;24.00;44.30
29539;DHT22;16482;51.046;4.498;2022-09-17T06:49:42;24.00;44.20
29539;DHT22;16482;51.046;4.498;2022-09-17T06:52:09;24.00;44.10
29539;DHT22;16482;51.046;4.498;2022-09-17T06:54:35;24.10;44.10
29539;DHT22;16482;51.046;4.498;2022-09-17T06:57:01;24.10;44.10
29539;DHT22;16482;51.046;4.498;2022-09-17T06:59:29;24.10;44.10
29539;DHT22;16482;51.046;4.498;2022-09-17T07:02:02;24.10;44.10
29539;DHT22;16482;51.046;4.498;2022-09-17T07:04:31;24.20;44.20
29539;DHT22;16482;51.046;4.498;2022-09-17T07:07:04;24.20;44.10
29539;DHT22;16482;51.046;4.498;2022-09-17T07:09:30;24.20;44.10
29539;DHT22;16482;51.046;4.498;2022-09-17T07:11:56;24.20;44.20
29539;DHT22;16482;51.046;4.498;2022-09-17T07:14:25;24.10;44.20
29539;DHT22;16482;51.046;4.498;2022-09-17T07:16:51;24.10;44.30
29539;DHT22;16482;51.046;4.498;2022-09-17T07:19:17;24.10;44.30
29539;DHT22;16482;51.046;4.498;2022-09-17T07:21:43;24.10;44.30
29539;DHT22;16482;51.046;4.498;2022-09-17T07:24:09;24.10;44.30
29539;DHT22;16482;51.046;4.498;2022-09-17T07:26:35;24.10;44.40
29539;DHT22;16482;51.046;4.498;2022-09-17T07:29:01;24.10;44.30
29539;DHT22;16482;51.046;4.498;2022-09-17T07:31:27;24.00;44.30
29539;DHT22;16482;51.046;4.498;2022-09-17T07:33:53;24.10;44.40
29539;DHT22;16482;51.046;4.498;2022-09-17T07:36:19;24.00;44.50
29539;DHT22;16482;51.046;4.498;2022-09-17T07:38:45;24.00;44.60
29539;DHT22;16482;51.046;4.498;2022-09-17T07:41:13;24.00;44.60
29539;DHT22;16482;51.046;4.498;2022-09-17T07:43:40;24.00;44.50
29539;DHT22;16482;51.046;4.498;2022-09-17T07:46:12;24.00;44.60
29539;DHT22;16482;51.046;4.498;2022-09-17T07:48:41;24.10;44.70
29539;DHT22;16482;51.046;4.498;2022-09-17T07:51:18;24.10;44.70
29539;DHT22;16482;51.046;4.498;2022-09-17T07:53:44;24.10;44.70
29539;DHT22;16482;51.046;4.498;2022-09-17T07:56:11;24.10;44.70
29539;DHT22;16482;51.046;4.498;2022-09-17T07:58:44;24.10;44.70
29539;DHT22;16482;51.046;4.498;2022-09-17T08:01:11;24.20;44.80
29539;DHT22;16482;51.046;4.498;2022-09-17T08:03:40;24.20;44.70
29539;DHT22;16482;51.046;4.498;2022-09-17T08:06:15;24.20;44.60
29539;DHT22;16482;51.046;4.498;2022-09-17T08:08:42;24.30;44.60
29539;DHT22;16482;51.046;4.498;2022-09-17T08:11:14;24.30;44.60
29539;DHT22;16482;51.046;4.498;2022-09-17T08:13:40;24.30;44.50
29539;DHT22;16482;51.046;4.498;2022-09-17T08:16:14;24.40;44.50
29539;DHT22;16482;51.046;4.498;2022-09-17T08:18:42;24.40;44.40
29539;DHT22;16482;51.046;4.498;2022-09-17T08:21:15;24.40;44.50
29539;DHT22;16482;51.046;4.498;2022-09-17T08:23:42;24.30;44.70
29539;DHT22;16482;51.046;4.498;2022-09-17T08:26:16;24.30;44.80
29539;DHT22;16482;51.046;4.498;2022-09-17T08:28:47;24.30;45.00
29539;DHT22;16482;51.046;4.498;2022-09-17T08:31:15;24.30;45.00
29539;DHT22;16482;51.046;4.498;2022-09-17T08:33:42;24.20;45.00
29539;DHT22;16482;51.046;4.498;2022-09-17T08:36:11;24.30;44.90
29539;DHT22;16482;51.046;4.498;2022-09-17T08:38:44;24.30;44.90
29539;DHT22;16482;51.046;4.498;2022-09-17T08:43:45;24.30;44.80
29539;DHT22;16482;51.046;4.498;2022-09-17T08:46:13;24.30;44.70
29539;DHT22;16482;51.046;4.498;2022-09-17T08:48:53;24.30;44.80
29539;DHT22;16482;51.046;4.498;2022-09-17T08:54:05;24.30;44.90
29539;DHT22;16482;51.046;4.498;2022-09-17T08:56:35;24.30;45.00
29539;DHT22;16482;51.046;4.498;2022-09-17T09:07:07;24.30;45.40
29539;DHT22;16482;51.046;4.498;2022-09-17T09:12:55;24.30;45.20
29539;DHT22;16482;51.046;4.498;2022-09-17T09:15:37;24.30;45.40
29539;DHT22;16482;51.046;4.498;2022-09-17T09:18:20;24.30;45.40
29539;DHT22;16482;51.046;4.498;2022-09-17T09:26:18;24.30;45.30
29539;DHT22;16482;51.046;4.498;2022-09-17T09:29:03;24.30;45.40
29539;DHT22;16482;51.046;4.498;2022-09-17T09:31:49;24.30;45.40
29539;DHT22;16482;51.046;4.498;2022-09-17T09:34:34;24.30;45.40
29539;DHT22;16482;51.046;4.498;2022-09-17T09:37:31;24.20;45.50
29539;DHT22;16482;51.046;4.498;2022-09-17T09:40:22;24.20;45.70
29539;DHT22;16482;51.046;4.498;2022-09-17T09:42:52;24.20;45.70
29539;DHT22;16482;51.046;4.498;2022-09-17T09:45:36;24.20;45.60
29539;DHT22;16482;51.046;4.498;2022-09-17T09:48:06;24.20;45.60
29539;DHT22;16482;51.046;4.498;2022-09-17T09:50:45;24.20;45.60
29539;DHT22;16482;51.046;4.498;2022-09-17T09:58:39;24.20;45.70
29539;DHT22;16482;51.046;4.498;2022-09-17T10:01:14;24.20;45.50
29539;DHT22;16482;51.046;4.498;2022-09-17T10:03:42;24.20;46.30
29539;DHT22;16482;51.046;4.498;2022-09-17T10:06:11;24.20;45.60
29539;DHT22;16482;51.046;4.498;2022-09-17T10:08:40;24.20;45.60
29539;DHT22;16482;51.046;4.498;2022-09-17T10:11:20;24.20;45.60
29539;DHT22;16482;51.046;4.498;2022-09-17T10:13:46;24.20;45.40
29539;DHT22;16482;51.046;4.498;2022-09-17T10:16:23;24.20;45.40
29539;DHT22;16482;51.046;4.498;2022-09-17T10:19:19;24.20;45.30
29539;DHT22;16482;51.046;4.498;2022-09-17T10:21:50;24.20;45.30
29539;DHT22;16482;51.046;4.498;2022-09-17T10:24:27;24.20;45.30
29539;DHT22;16482;51.046;4.498;2022-09-17T10:27:03;24.10;45.30
29539;DHT22;16482;51.046;4.498;2022-09-17T10:29:29;24.10;45.40
29539;DHT22;16482;51.046;4.498;2022-09-17T10:32:03;24.20;45.40
29539;DHT22;16482;51.046;4.498;2022-09-17T10:34:31;24.10;45.50
29539;DHT22;16482;51.046;4.498;2022-09-17T10:36:58;24.10;45.80
29539;DHT22;16482;51.046;4.498;2022-09-17T10:39:28;24.10;45.90
29539;DHT22;16482;51.046;4.498;2022-09-17T10:42:12;24.10;45.90
29539;DHT22;16482;51.046;4.498;2022-09-17T10:44:52;24.10;46.00
29539;DHT22;16482;51.046;4.498;2022-09-17T10:47:23;24.20;46.10
29539;DHT22;16482;51.046;4.498;2022-09-17T10:52:36;24.10;46.20
29539;DHT22;16482;51.046;4.498;2022-09-17T11:03:46;24.10;46.40
29539;DHT22;16482;51.046;4.498;2022-09-17T11:06:23;24.10;46.40
29539;DHT22;16482;51.046;4.498;2022-09-17T11:26:34;24.10;46.50
29539;DHT22;16482;51.046;4.498;2022-09-17T11:34:15;24.10;46.40
29539;DHT22;16482;51.046;4.498;2022-09-17T11:40:03;24.10;46.30
29539;DHT22;16482;51.046;4.498;2022-09-17T11:42:40;24.10;46.40
29539;DHT22;16482;51.046;4.498;2022-09-17T11:48:21;24.20;46.60
29539;DHT22;16482;51.046;4.498;2022-09-17T11:50:52;24.20;46.70
29539;DHT22;16482;51.046;4.498;2022-09-17T11:58:51;24.20;46.90
29539;DHT22;16482;51.046;4.498;2022-09-17T12:01:34;24.30;47.00
29539;DHT22;16482;51.046;4.498;2022-09-17T12:04:34;24.30;47.00
29539;DHT22;16482;51.046;4.498;2022-09-17T12:07:27;24.30;46.90
29539;DHT22;16482;51.046;4.498;2022-09-17T12:12:38;24.30;47.10
29539;DHT22;16482;51.046;4.498;2022-09-17T12:15:16;24.40;47.10
29539;DHT22;16482;51.046;4.498;2022-09-17T12:20:34;24.40;47.20
29539;DHT22;16482;51.046;4.498;2022-09-17T12:23:03;24.30;47.30
29539;DHT22;16482;51.046;4.498;2022-09-17T12:25:42;24.30;47.40
29539;DHT22;16482;51.046;4.498;2022-09-17T12:28:18;24.30;47.50
29539;DHT22;16482;51.046;4.498;2022-09-17T12:30:54;24.30;47.50
29539;DHT22;16482;51.046;4.498;2022-09-17T12:33:36;24.30;47.50
29539;DHT22;16482;51.046;4.498;2022-09-17T12:36:11;24.30;47.40
29539;DHT22;16482;51.046;4.498;2022-09-17T12:53:18;24.30;47.70
29539;DHT22;16482;51.046;4.498;2022-09-17T13:01:09;24.40;47.90
29539;DHT22;16482;51.046;4.498;2022-09-17T13:03:55;24.40;48.00
29539;DHT22;16482;51.046;4.498;2022-09-17T13:10:02;24.30;47.90
29539;DHT22;16482;51.046;4.498;2022-09-17T13:18:24;24.30;47.80
29539;DHT22;16482;51.046;4.498;2022-09-17T13:21:09;24.40;47.80
29539;DHT22;16482;51.046;4.498;2022-09-17T13:23:45;24.30;47.70
29539;DHT22;16482;51.046;4.498;2022-09-17T13:26:15;24.30;47.60
29539;DHT22;16482;51.046;4.498;2022-09-17T13:28:49;24.30;47.60
29539;DHT22;16482;51.046;4.498;2022-09-17T13:31:21;24.40;47.60
29539;DHT22;16482;51.046;4.498;2022-09-17T13:34:00;24.40;47.50
29539;DHT22;16482;51.046;4.498;2022-09-17T13:36:37;24.40;47.40
29539;DHT22;16482;51.046;4.498;2022-09-17T13:39:05;24.40;47.50
29539;DHT22;16482;51.046;4.498;2022-09-17T13:41:34;24.40;47.60
29539;DHT22;16482;51.046;4.498;2022-09-17T13:44:03;24.40;47.60
29539;DHT22;16482;51.046;4.498;2022-09-17T13:46:30;24.40;47.50
29539;DHT22;16482;51.046;4.498;2022-09-17T13:49:13;24.40;47.40
29539;DHT22;16482;51.046;4.498;2022-09-17T13:54:08;24.40;47.40
29539;DHT22;16482;51.046;4.498;2022-09-17T13:57:08;24.30;47.40
29539;DHT22;16482;51.046;4.498;2022-09-17T13:59:35;24.30;47.30
29539;DHT22;16482;51.046;4.498;2022-09-17T14:02:25;24.40;47.40
29539;DHT22;16482;51.046;4.498;2022-09-17T14:08:10;24.40;47.40
29539;DHT22;16482;51.046;4.498;2022-09-17T14:10:42;24.30;47.20
29539;DHT22;16482;51.046;4.498;2022-09-17T14:13:38;24.30;46.90
29539;DHT22;16482;51.046;4.498;2022-09-17T14:29:35;24.30;45.80
29539;DHT22;16482;51.046;4.498;2022-09-17T14:32:09;24.30;46.20
29539;DHT22;16482;51.046;4.498;2022-09-17T14:34:40;24.30;45.50
29539;DHT22;16482;51.046;4.498;2022-09-17T14:37:11;24.30;45.40
29539;DHT22;16482;51.046;4.498;2022-09-17T14:39:39;24.30;45.30
29539;DHT22;16482;51.046;4.498;2022-09-17T14:42:20;24.30;45.10
29539;DHT22;16482;51.046;4.498;2022-09-17T14:44:56;24.30;45.10
29539;DHT22;16482;51.046;4.498;2022-09-17T14:47:23;24.30;44.90
29539;DHT22;16482;51.046;4.498;2022-09-17T14:49:51;24.30;44.80
29539;DHT22;16482;51.046;4.498;2022-09-17T14:52:28;24.30;44.70
29539;DHT22;16482;51.046;4.498;2022-09-17T14:57:39;24.30;44.80
29539;DHT22;16482;51.046;4.498;2022-09-17T15:00:11;24.20;44.60
29539;DHT22;16482;51.046;4.498;2022-09-17T15:02:41;24.20;44.50
29539;DHT22;16482;51.046;4.498;2022-09-17T15:11:20;24.20;44.60
29539;DHT22;16482;51.046;4.498;2022-09-17T15:13:36;24.20;44.60
29539;DHT22;16482;51.046;4.498;2022-09-17T15:16:24;24.20;44.60
29539;DHT22;16482;51.046;4.498;2022-09-17T15:18:56;24.20;44.70
29539;DHT22;16482;51.046;4.498;2022-09-17T15:24:42;24.20;44.70
29539;DHT22;16482;51.046;4.498;2022-09-17T15:27:16;24.20;44.80
29539;DHT22;16482;51.046;4.498;2022-09-17T15:29:49;24.20;44.80
29539;DHT22;16482;51.046;4.498;2022-09-17T15:32:16;24.20;44.80
29539;DHT22;16482;51.046;4.498;2022-09-17T15:34:42;24.20;45.00
29539;DHT22;16482;51.046;4.498;2022-09-17T15:37:18;24.20;45.00
29539;DHT22;16482;51.046;4.498;2022-09-17T15:39:50;24.20;45.00
29539;DHT22;16482;51.046;4.498;2022-09-17T15:42:21;24.20;45.00
29539;DHT22;16482;51.046;4.498;2022-09-17T15:44:49;24.20;44.90
29539;DHT22;16482;51.046;4.498;2022-09-17T15:47:52;24.10;44.90
29539;DHT22;16482;51.046;4.498;2022-09-17T15:52:47;24.20;44.80
29539;DHT22;16482;51.046;4.498;2022-09-17T15:57:59;24.10;44.70
29539;DHT22;16482;51.046;4.498;2022-09-17T16:00:26;24.10;44.50
29539;DHT22;16482;51.046;4.498;2022-09-17T16:02:52;24.10;44.50
29539;DHT22;16482;51.046;4.498;2022-09-17T16:07:52;24.10;44.40
29539;DHT22;16482;51.046;4.498;2022-09-17T16:10:18;24.10;44.30
29539;DHT22;16482;51.046;4.498;2022-09-17T16:12:48;24.10;44.20
29539;DHT22;16482;51.046;4.498;2022-09-17T16:15:14;24.00;44.10
29539;DHT22;16482;51.046;4.498;2022-09-17T16:17:46;24.10;44.10
29539;DHT22;16482;51.046;4.498;2022-09-17T16:20:21;24.10;44.10
29539;DHT22;16482;51.046;4.498;2022-09-17T16:22:51;24.00;44.10
29539;DHT22;16482;51.046;4.498;2022-09-17T16:25:22;24.10;44.20
29539;DHT22;16482;51.046;4.498;2022-09-17T16:30:40;24.10;44.10
29539;DHT22;16482;51.046;4.498;2022-09-17T16:33:10;24.10;44.10
29539;DHT22;16482;51.046;4.498;2022-09-17T16:35:36;24.10;44.20
29539;DHT22;16482;51.046;4.498;2022-09-17T16:38:05;24.10;44.20
29539;DHT22;16482;51.046;4.498;2022-09-17T16:40:31;24.00;44.00
29539;DHT22;16482;51.046;4.498;2022-09-17T16:43:01;24.10;44.10
29539;DHT22;16482;51.046;4.498;2022-09-17T16:45:29;24.10;44.20
29539;DHT22;16482;51.046;4.498;2022-09-17T16:47:55;24.10;44.20
29539;DHT22;16482;51.046;4.498;2022-09-17T16:50:22;24.10;44.20
29539;DHT22;16482;51.046;4.498;2022-09-17T16:52:51;24.10;44.20
29539;DHT22;16482;51.046;4.498;2022-09-17T16:55:20;24.10;44.30
29539;DHT22;16482;51.046;4.498;2022-09-17T16:57:49;24.10;44.30
29539;DHT22;16482;51.046;4.498;2022-09-17T17:00:17;24.10;44.40
29539;DHT22;16482;51.046;4.498;2022-09-17T17:02:54;24.10;44.30
29539;DHT22;16482;51.046;4.498;2022-09-17T17:05:22;24.10;44.40
29539;DHT22;16482;51.046;4.498;2022-09-17T17:07:49;24.00;44.40
29539;DHT22;16482;51.046;4.498;2022-09-17T17:10:15;24.10;44.40
29539;DHT22;16482;51.046;4.498;2022-09-17T17:12:44;24.10;44.60
29539;DHT22;16482;51.046;4.498;2022-09-17T17:15:11;24.10;44.70
29539;DHT22;16482;51.046;4.498;2022-09-17T17:17:37;24.00;44.70
29539;DHT22;16482;51.046;4.498;2022-09-17T17:20:05;24.10;44.80
29539;DHT22;16482;51.046;4.498;2022-09-17T17:22:33;24.00;44.80
29539;DHT22;16482;51.046;4.498;2022-09-17T17:24:59;24.00;45.00
29539;DHT22;16482;51.046;4.498;2022-09-17T17:27:25;24.00;44.90
29539;DHT22;16482;51.046;4.498;2022-09-17T17:29:51;24.00;45.00
29539;DHT22;16482;51.046;4.498;2022-09-17T17:32:17;24.00;45.10
29539;DHT22;16482;51.046;4.498;2022-09-17T17:34:43;24.00;45.10
29539;DHT22;16482;51.046;4.498;2022-09-17T17:37:09;24.00;45.20
29539;DHT22;16482;51.046;4.498;2022-09-17T17:39:35;24.00;45.20
29539;DHT22;16482;51.046;4.498;2022-09-17T17:42:01;24.00;45.30
29539;DHT22;16482;51.046;4.498;2022-09-17T17:44:27;24.00;45.30
29539;DHT22;16482;51.046;4.498;2022-09-17T17:46:53;24.00;45.80
29539;DHT22;16482;51.046;4.498;2022-09-17T17:49:19;24.00;45.20
29539;DHT22;16482;51.046;4.498;2022-09-17T17:51:46;24.00;45.20
29539;DHT22;16482;51.046;4.498;2022-09-17T17:54:12;24.00;45.20
29539;DHT22;16482;51.046;4.498;2022-09-17T17:56:38;24.00;45.20
29539;DHT22;16482;51.046;4.498;2022-09-17T17:59:05;24.00;45.20
29539;DHT22;16482;51.046;4.498;2022-09-17T18:01:31;24.00;45.20
29539;DHT22;16482;51.046;4.498;2022-09-17T18:04:01;24.00;45.20
29539;DHT22;16482;51.046;4.498;2022-09-17T18:06:28;24.00;45.20
29539;DHT22;16482;51.046;4.498;2022-09-17T18:08:55;24.00;45.20
29539;DHT22;16482;51.046;4.498;2022-09-17T18:11:21;23.90;45.70
29539;DHT22;16482;51.046;4.498;2022-09-17T18:13:51;24.00;45.20
29539;DHT22;16482;51.046;4.498;2022-09-17T18:16:17;23.90;45.10
29539;DHT22;16482;51.046;4.498;2022-09-17T18:18:44;23.90;45.10
29539;DHT22;16482;51.046;4.498;2022-09-17T18:21:12;24.00;45.20
29539;DHT22;16482;51.046;4.498;2022-09-17T18:23:40;23.90;45.10
29539;DHT22;16482;51.046;4.498;2022-09-17T18:26:11;24.00;45.20
29539;DHT22;16482;51.046;4.498;2022-09-17T18:28:38;23.90;45.10
29539;DHT22;16482;51.046;4.498;2022-09-17T18:31:19;23.90;45.10
29539;DHT22;16482;51.046;4.498;2022-09-17T18:33:46;23.90;45.80
29539;DHT22;16482;51.046;4.498;2022-09-17T18:36:12;23.90;45.20
29539;DHT22;16482;51.046;4.498;2022-09-17T18:38:40;23.90;45.10
29539;DHT22;16482;51.046;4.498;2022-09-17T18:41:14;23.90;45.20
29539;DHT22;16482;51.046;4.498;2022-09-17T18:43:40;23.90;45.20
29539;DHT22;16482;51.046;4.498;2022-09-17T18:46:09;23.90;45.10
29539;DHT22;16482;51.046;4.498;2022-09-17T18:48:35;23.90;45.20
29539;DHT22;16482;51.046;4.498;2022-09-17T18:51:05;23.90;45.10
29539;DHT22;16482;51.046;4.498;2022-09-17T18:53:33;23.90;45.10
29539;DHT22;16482;51.046;4.498;2022-09-17T18:56:11;23.90;45.10
29539;DHT22;16482;51.046;4.498;2022-09-17T18:58:39;23.90;45.10
29539;DHT22;16482;51.046;4.498;2022-09-17T19:01:10;23.90;45.20
29539;DHT22;16482;51.046;4.498;2022-09-17T19:03:36;23.90;45.20
29539;DHT22;16482;51.046;4.498;2022-09-17T19:06:06;23.90;45.20